createdAt,value
2022-10-15T00:02:38.007Z,100006.28
2022-10-15T00:05:13.453Z,100008.97
2022-10-15T00:07:48.503Z,100011.19
2022-10-15T00:10:28.395Z,100002.63
2022-10-15T00:13:09.361Z,99999.72
2022-10-15T00:15:39.979Z,99997.19
2022-10-15T00:18:11.433Z,99991.75
2022-10-15T00:20:51.452Z,99997.84
2022-10-15T00:23:29.226Z,99995.91
2022-10-15T00:26:42.496Z,99997.09
2022-10-15T00:29:24.229Z,99994.16
2022-10-15T00:32:09.158Z,99999.28
2022-10-15T00:35:01.298Z,99995.97
2022-10-15T00:37:48.728Z,99995.25
2022-10-15T00:40:24.067Z,100000.94
2022-10-15T00:43:12.456Z,99986.81
2022-10-15T00:45:41.975Z,99990.00
2022-10-15T00:48:19.951Z,99985.03
2022-10-15T00:50:47.126Z,99979.25
2022-10-15T00:53:19.160Z,99978.59
2022-10-15T00:55:54.137Z,99968.41
2022-10-15T00:58:31.776Z,99976.88
2022-10-15T01:01:01.678Z,99975.13
2022-10-15T01:03:39.948Z,99967.41
2022-10-15T01:06:15.634Z,99969.47
2022-10-15T01:08:46.417Z,99963.25
2022-10-15T01:11:41.206Z,99967.94
2022-10-15T01:14:18.453Z,99973.06
2022-10-15T01:17:05.380Z,99978.75
2022-10-15T01:20:15.831Z,99971.88
2022-10-15T01:23:26.549Z,99970.41
2022-10-15T01:26:27.066Z,99967.47
2022-10-15T01:29:30.863Z,99972.00
2022-10-15T01:32:19.797Z,99976.91
2022-10-15T01:34:57.535Z,99980.19
2022-10-15T01:37:44.860Z,99980.19
2022-10-15T01:40:51.470Z,99976.47
2022-10-15T01:43:46.961Z,99965.34
2022-10-15T01:46:38.378Z,99961.28
2022-10-15T01:49:28.153Z,99957.16
2022-10-15T01:52:12.144Z,99964.22
2022-10-15T01:54:42.097Z,99960.06
2022-10-15T01:57:11.307Z,99957.75
2022-10-15T01:59:54.489Z,99954.88
2022-10-15T02:02:30.587Z,99952.47
2022-10-15T02:05:02.504Z,99950.66
2022-10-15T02:08:12.904Z,99947.69
2022-10-15T02:11:16.516Z,99947.06
2022-10-15T02:14:03.307Z,99944.09
2022-10-15T02:16:54.847Z,99944.09
2022-10-15T02:19:45.963Z,99952.81
2022-10-15T02:22:37.631Z,99960.34
2022-10-15T02:25:18.527Z,99954.31
2022-10-15T02:27:57.457Z,99960.97
2022-10-15T02:30:38.140Z,99959.69
2022-10-15T02:33:21.280Z,99950.97
2022-10-15T02:35:52.514Z,99955.53
2022-10-15T02:38:32.169Z,99950.97
2022-10-15T02:41:15.405Z,99948.69
2022-10-15T02:43:54.097Z,99952.84
2022-10-15T02:46:28.677Z,99951.63
2022-10-15T02:49:06.901Z,99949.34
2022-10-15T02:51:39.822Z,99948.03
2022-10-15T02:54:17.642Z,99939.81
2022-10-15T02:57:10.217Z,99946.38
2022-10-15T02:59:49.165Z,99946.81
2022-10-15T03:02:30.385Z,99947.66
2022-10-15T03:05:03.058Z,99944.31
2022-10-15T03:07:34.880Z,99941.00
2022-10-15T03:10:18.880Z,99939.16
2022-10-15T03:12:46.942Z,99935.72
2022-10-15T03:15:22.852Z,99935.66
2022-10-15T03:18:04.408Z,99941.75
2022-10-15T03:20:44.730Z,99946.81
2022-10-15T03:23:29.085Z,99940.47
2022-10-15T03:26:21.734Z,99936.84
2022-10-15T03:29:01.446Z,99941.69
2022-10-15T03:31:47.479Z,99938.78
2022-10-15T03:34:34.796Z,99949.91
2022-10-15T03:37:19.509Z,99947.78
2022-10-15T03:39:53.493Z,99944.53
2022-10-15T03:42:23.647Z,99952.31
2022-10-15T03:44:59.567Z,99948.00
2022-10-15T03:47:35.423Z,99938.44
2022-10-15T03:50:19.519Z,99947.69
2022-10-15T03:52:57.274Z,99943.19
2022-10-15T03:55:38.295Z,99944.38
2022-10-15T03:58:26.190Z,99944.72
2022-10-15T04:01:19.638Z,99945.59
2022-10-15T04:03:58.476Z,99945.94
2022-10-15T04:06:45.144Z,99944.28
2022-10-15T04:09:23.142Z,99945.94
2022-10-15T04:12:14.510Z,99942.16
2022-10-15T04:14:47.112Z,99935.56
2022-10-15T04:17:23.295Z,99933.94
2022-10-15T04:19:59.676Z,99932.25
2022-10-15T04:22:39.406Z,99934.34
2022-10-15T04:25:21.158Z,99938.09
2022-10-15T04:27:59.621Z,99933.41
2022-10-15T04:30:50.223Z,99926.59
2022-10-15T04:36:50.119Z,99913.09
2022-10-15T04:39:27.937Z,99929.78
2022-10-15T04:42:00.105Z,99934.78
2022-10-15T04:44:53.869Z,99932.53
2022-10-15T04:47:32.423Z,99941.44
2022-10-15T04:50:25.629Z,99943.25
2022-10-15T04:53:14.214Z,99938.19
2022-10-15T04:55:55.883Z,99937.84
2022-10-15T04:58:32.564Z,99937.97
2022-10-15T05:01:06.761Z,99942.16
2022-10-15T05:04:00.446Z,99945.22
2022-10-15T05:06:39.082Z,99943.97
2022-10-15T05:09:23.745Z,99941.16
2022-10-15T05:11:58.157Z,99946.00
2022-10-15T05:14:39.041Z,99944.97
2022-10-15T05:17:15.691Z,99945.88
2022-10-15T05:19:47.610Z,99955.22
2022-10-15T05:22:22.141Z,99961.69
2022-10-15T05:24:53.231Z,99962.34
2022-10-15T05:27:48.126Z,99965.66
2022-10-15T05:30:26.267Z,99953.34
2022-10-15T05:32:57.785Z,99952.56
2022-10-15T05:35:31.449Z,99950.13
2022-10-15T05:38:11.636Z,99950.22
2022-10-15T05:40:41.620Z,99949.63
2022-10-15T05:43:21.841Z,99949.94
2022-10-15T05:45:59.910Z,99950.78
2022-10-15T05:48:26.975Z,99946.50
2022-10-15T05:50:56.306Z,99947.38
2022-10-15T05:53:43.835Z,99952.25
2022-10-15T05:56:23.243Z,99960.84
2022-10-15T05:58:53.051Z,99962.72
2022-10-15T06:01:22.156Z,99966.53
2022-10-15T06:03:57.465Z,99967.31
2022-10-15T06:06:36.515Z,99971.25
2022-10-15T06:09:08.983Z,99966.19
2022-10-15T06:11:46.983Z,99976.75
2022-10-15T06:14:25.487Z,99975.00
2022-10-15T06:17:11.395Z,99976.31
2022-10-15T06:19:54.551Z,99981.25
2022-10-15T06:22:27.063Z,99978.19
2022-10-15T06:24:56.633Z,99985.31
2022-10-15T06:27:36.500Z,99993.84
2022-10-15T06:30:21.495Z,99988.84
2022-10-15T06:32:59.681Z,99996.72
2022-10-15T06:35:39.365Z,99993.41
2022-10-15T06:38:22.893Z,99997.91
2022-10-15T06:41:08.874Z,99993.72
2022-10-15T06:43:46.811Z,99990.59
2022-10-15T06:46:27.433Z,99998.06
2022-10-15T06:49:09.897Z,100000.75
2022-10-15T06:52:03.854Z,100002.75
2022-10-15T06:54:39.072Z,100002.66
2022-10-15T06:57:25.514Z,100001.53
2022-10-15T07:00:09.503Z,100001.53
2022-10-15T07:02:52.294Z,100009.69
2022-10-15T07:05:34.392Z,100008.06
2022-10-15T07:08:18.407Z,100010.53
2022-10-15T07:11:03.744Z,100016.63
2022-10-15T07:13:46.561Z,100014.69
2022-10-15T07:16:27.458Z,100012.97
2022-10-15T07:19:10.614Z,100020.88
2022-10-15T07:21:46.398Z,100014.91
2022-10-15T07:24:35.051Z,100023.59
2022-10-15T07:27:19.318Z,100029.53
2022-10-15T07:30:07.034Z,100022.78
2022-10-15T07:32:42.669Z,100021.28
2022-10-15T07:35:22.773Z,100022.16
2022-10-15T07:38:06.055Z,100022.03
2022-10-15T07:40:49.562Z,100023.38
2022-10-15T07:43:39.917Z,100025.91
2022-10-15T07:46:22.631Z,100020.72
2022-10-15T07:49:11.792Z,100013.50
2022-10-15T07:51:46.516Z,100017.91
2022-10-15T07:54:21.440Z,100018.97
2022-10-15T07:56:56.432Z,100018.66
2022-10-15T07:59:36.836Z,100025.16
2022-10-15T08:02:27.898Z,100018.19
2022-10-15T08:05:02.451Z,100020.28
2022-10-15T08:07:42.037Z,100017.56
2022-10-15T08:10:24.015Z,100022.38
2022-10-15T08:13:06.941Z,100020.75
2022-10-15T08:15:56.304Z,100023.13
2022-10-15T08:18:37.967Z,100020.84
2022-10-15T08:21:19.244Z,100028.06
2022-10-15T08:23:52.176Z,100027.25
2022-10-15T08:26:28.281Z,100026.75
2022-10-15T08:29:11.644Z,100037.28
2022-10-15T08:31:52.295Z,100032.06
2022-10-15T08:34:34.820Z,100032.06
2022-10-15T08:37:10.755Z,100025.50
2022-10-15T08:39:48.747Z,100023.94
2022-10-15T08:42:41.406Z,100017.44
2022-10-15T08:45:30.228Z,100025.25
2022-10-15T08:48:16.662Z,100029.00
2022-10-15T08:51:08.525Z,100022.09
2022-10-15T08:53:55.390Z,100027.56
2022-10-15T08:56:36.927Z,100027.56
2022-10-15T08:59:42.706Z,100028.84
2022-10-15T09:02:34.682Z,100032.72
2022-10-15T09:05:24.999Z,100039.47
2022-10-15T09:08:06.878Z,100034.44
2022-10-15T09:10:57.911Z,100028.31
2022-10-15T09:13:40.316Z,100039.13
2022-10-15T09:16:34.907Z,100028.69
2022-10-15T09:19:19.513Z,100032.69
2022-10-15T09:21:56.289Z,100032.97
2022-10-15T09:24:31.639Z,100032.59
2022-10-15T09:27:38.126Z,100031.06
2022-10-15T09:30:22.412Z,100034.38
2022-10-15T09:32:56.648Z,100034.84
2022-10-15T09:35:57.480Z,100042.84
2022-10-15T09:38:52.387Z,100046.66
2022-10-15T09:41:53.713Z,100059.28
2022-10-15T09:44:45.942Z,100057.06
2022-10-15T09:47:49.394Z,100051.16
2022-10-15T09:50:30.289Z,100050.63
2022-10-15T09:53:11.040Z,100046.47
2022-10-15T09:55:46.067Z,100041.81
2022-10-15T09:58:29.048Z,100045.22
2022-10-15T10:01:19.789Z,100038.59
2022-10-15T10:04:11.794Z,100039.25
2022-10-15T10:06:55.468Z,100045.00
2022-10-15T10:09:45.507Z,100046.50
2022-10-15T10:12:26.277Z,100039.16
2022-10-15T10:15:10.163Z,100038.44
2022-10-15T10:17:57.139Z,100031.34
2022-10-15T10:20:36.092Z,100027.06
2022-10-15T10:23:34.665Z,100026.78
2022-10-15T10:26:11.358Z,100027.34
2022-10-15T10:29:04.656Z,100024.63
2022-10-15T10:31:45.040Z,100013.44
2022-10-15T10:34:41.235Z,100017.59
2022-10-15T10:37:25.778Z,100016.41
2022-10-15T10:40:02.903Z,100007.94
2022-10-15T10:42:40.796Z,100011.63
2022-10-15T10:45:50.118Z,100005.22
2022-10-15T10:48:37.535Z,99999.03
2022-10-15T10:51:31.043Z,100000.53
2022-10-15T10:54:18.213Z,99994.34
2022-10-15T10:56:54.211Z,99998.09
2022-10-15T10:59:47.483Z,99985.78
2022-10-15T11:02:22.524Z,99987.25
2022-10-15T11:05:00.934Z,99987.78
2022-10-15T11:07:41.994Z,99985.34
2022-10-15T11:10:35.453Z,99983.13
2022-10-15T11:13:31.274Z,99978.72
2022-10-15T11:16:29.016Z,99980.94
2022-10-15T11:20:13.138Z,99983.91
2022-10-15T11:23:11.531Z,99974.63
2022-10-15T11:26:12.336Z,99976.53
2022-10-15T11:29:06.864Z,99972.50
2022-10-15T11:31:55.068Z,99968.34
2022-10-15T11:35:20.098Z,99960.19
2022-10-15T11:38:30.089Z,99958.28
2022-10-15T11:41:29.464Z,99949.25
2022-10-15T11:44:18.220Z,99956.34
2022-10-15T11:47:34.243Z,99940.75
2022-10-15T11:50:33.587Z,99936.13
2022-10-15T11:53:08.122Z,99932.53
2022-10-15T11:55:54.982Z,99934.44
2022-10-15T11:58:43.044Z,99926.72
2022-10-15T12:01:32.665Z,99932.25
2022-10-15T12:04:33.505Z,99927.28
2022-10-15T12:07:10.618Z,99924.25
2022-10-15T12:09:52.858Z,99927.06
2022-10-15T12:12:33.433Z,99932.22
2022-10-15T12:15:19.507Z,99924.31
2022-10-15T12:18:05.861Z,99921.88
2022-10-15T12:20:48.473Z,99921.59
2022-10-15T12:23:45.121Z,99924.31
2022-10-15T12:26:32.676Z,99920.50
2022-10-15T12:29:23.051Z,99914.53
2022-10-15T12:32:04.972Z,99914.22
2022-10-15T12:34:49.369Z,99920.25
2022-10-15T12:37:27.680Z,99912.56
2022-10-15T12:40:29.065Z,99912.00
2022-10-15T12:43:17.697Z,99910.63
2022-10-15T12:46:02.950Z,99913.94
2022-10-15T12:48:39.931Z,99910.91
2022-10-15T12:51:24.863Z,99912.53
2022-10-15T12:54:02.445Z,99906.19
2022-10-15T12:56:45.364Z,99907.75
2022-10-15T13:00:02.628Z,99908.84
2022-10-15T13:02:38.484Z,99905.00
2022-10-15T13:05:25.190Z,99914.84
2022-10-15T13:08:03.003Z,99913.16
2022-10-15T13:10:55.425Z,99905.56
2022-10-15T13:13:33.928Z,99914.34
2022-10-15T13:16:14.453Z,99915.72
2022-10-15T13:18:54.048Z,99916.53
2022-10-15T13:21:46.052Z,99916.59
2022-10-15T13:24:24.385Z,99914.88
2022-10-15T13:27:01.995Z,99917.09
2022-10-15T13:29:39.576Z,99916.78
2022-10-15T13:32:27.497Z,99913.75
2022-10-15T13:35:09.158Z,99924.13
2022-10-15T13:37:46.985Z,99921.91
2022-10-15T13:40:29.549Z,99925.13
2022-10-15T13:43:17.279Z,99928.69
2022-10-15T13:45:57.845Z,99928.34
2022-10-15T13:48:35.270Z,99938.94
2022-10-15T13:51:06.035Z,99926.50
2022-10-15T13:53:56.206Z,99931.19
2022-10-15T13:56:33.998Z,99936.38
2022-10-15T13:59:26.870Z,99928.84
2022-10-15T14:02:09.254Z,99925.34
2022-10-15T14:04:41.414Z,99925.38
2022-10-15T14:07:27.728Z,99923.66
2022-10-15T14:10:02.656Z,99925.31
2022-10-15T14:12:31.861Z,99921.44
2022-10-15T14:15:40.417Z,99913.69
2022-10-15T14:18:22.989Z,99919.06
2022-10-15T14:21:07.809Z,99912.00
2022-10-15T14:23:43.098Z,99905.78
2022-10-15T14:26:16.816Z,99906.84
2022-10-15T14:28:58.362Z,99908.75
2022-10-15T14:31:52.916Z,99899.41
2022-10-15T14:34:39.429Z,99900.44
2022-10-15T14:37:33.816Z,99894.34
2022-10-15T14:40:14.880Z,99900.63
2022-10-15T14:43:04.867Z,99902.72
2022-10-15T14:45:53.700Z,99899.94
2022-10-15T14:48:35.274Z,99900.72
2022-10-15T14:51:19.635Z,99900.94
2022-10-15T14:53:58.055Z,99901.88
2022-10-15T14:56:40.140Z,99907.97
2022-10-15T14:59:24.278Z,99902.00
2022-10-15T15:02:04.711Z,99900.25
2022-10-15T15:04:46.801Z,99906.41
2022-10-15T15:07:23.737Z,99915.34
2022-10-15T15:09:56.244Z,99911.16
2022-10-15T15:12:31.641Z,99911.97
2022-10-15T15:15:09.889Z,99913.94
2022-10-15T15:17:45.075Z,99914.41
2022-10-15T15:20:24.289Z,99915.34
2022-10-15T15:22:55.389Z,99914.44
2022-10-15T15:25:39.848Z,99908.91
2022-10-15T15:28:31.627Z,99917.03
2022-10-15T15:31:26.883Z,99914.66
2022-10-15T15:34:08.098Z,99927.78
2022-10-15T15:36:40.341Z,99920.28
2022-10-15T15:39:17.515Z,99921.41
2022-10-15T15:41:47.230Z,99924.13
2022-10-15T15:44:26.049Z,99918.13
2022-10-15T15:47:07.231Z,99921.09
2022-10-15T15:49:47.902Z,99924.31
2022-10-15T15:52:31.231Z,99917.06
2022-10-15T15:55:11.235Z,99918.69
2022-10-15T15:57:54.622Z,99921.34
2022-10-15T16:00:27.896Z,99929.44
2022-10-15T16:03:04.752Z,99931.09
2022-10-15T16:05:52.237Z,99945.03
2022-10-15T16:08:31.192Z,99936.47
2022-10-15T16:11:07.535Z,99942.50
2022-10-15T16:13:49.081Z,99949.25
2022-10-15T16:16:24.435Z,99950.16
2022-10-15T16:19:05.439Z,99953.13
2022-10-15T16:21:40.869Z,99953.72
2022-10-15T16:24:22.910Z,99949.97
2022-10-15T16:26:52.818Z,99956.03
2022-10-15T16:29:27.019Z,99963.25
2022-10-15T16:31:58.857Z,99964.13
2022-10-15T16:34:31.638Z,99972.28
2022-10-15T16:37:04.328Z,99971.94
2022-10-15T16:39:36.720Z,99977.56
2022-10-15T16:42:13.671Z,99980.09
2022-10-15T16:44:51.404Z,99978.91
2022-10-15T16:47:21.490Z,99984.13
2022-10-15T16:49:59.412Z,99980.25
2022-10-15T16:52:30.342Z,99985.34
2022-10-15T16:55:05.521Z,99990.72
2022-10-15T16:57:42.418Z,99995.56
2022-10-15T17:00:17.364Z,100000.81
2022-10-15T17:02:50.862Z,99989.22
2022-10-15T17:05:27.324Z,99998.53
2022-10-15T17:08:08.170Z,100000.22
2022-10-15T17:10:55.232Z,100002.16
2022-10-15T17:13:34.108Z,100004.53
2022-10-15T17:16:22.505Z,100012.34
2022-10-15T17:19:08.892Z,100021.47
2022-10-15T17:21:47.839Z,100019.44
2022-10-15T17:24:24.181Z,100018.00
2022-10-15T17:27:03.551Z,100023.78
2022-10-15T17:29:36.502Z,100021.91
2022-10-15T17:32:11.663Z,100034.25
2022-10-15T17:34:42.865Z,100034.81
2022-10-15T17:37:14.998Z,100037.28
2022-10-15T17:39:52.854Z,100041.09
2022-10-15T17:42:24.404Z,100037.69
2022-10-15T17:45:11.578Z,100040.97
2022-10-15T17:47:51.932Z,100043.34
2022-10-15T17:50:24.299Z,100045.00
2022-10-15T17:52:55.323Z,100050.31
2022-10-15T17:55:30.996Z,100044.41
2022-10-15T17:58:08.414Z,100039.94
2022-10-15T18:00:46.371Z,100044.09
2022-10-15T18:03:22.590Z,100042.06
2022-10-15T18:05:56.222Z,100056.81
2022-10-15T18:08:31.378Z,100052.56
2022-10-15T18:11:09.783Z,100054.94
2022-10-15T18:13:37.533Z,100052.69
2022-10-15T18:16:08.425Z,100052.69
2022-10-15T18:18:46.182Z,100059.91
2022-10-15T18:21:23.368Z,100056.81
2022-10-15T18:24:01.569Z,100069.00
2022-10-15T18:26:35.545Z,100071.84
2022-10-15T18:29:11.262Z,100075.75
2022-10-15T18:31:47.271Z,100069.09
2022-10-15T18:34:22.293Z,100070.19
2022-10-15T18:36:57.539Z,100069.47
2022-10-15T18:39:29.417Z,100065.69
2022-10-15T18:42:02.638Z,100058.72
2022-10-15T18:44:32.202Z,100061.31
2022-10-15T18:47:03.599Z,100062.50
2022-10-15T18:49:43.381Z,100062.16
2022-10-15T18:52:22.006Z,100064.97
2022-10-15T18:55:06.355Z,100055.63
2022-10-15T18:57:43.719Z,100052.09
2022-10-15T19:00:25.302Z,100045.03
2022-10-15T19:02:58.674Z,100033.91
2022-10-15T19:05:38.101Z,100037.22
2022-10-15T19:08:20.788Z,100044.53
2022-10-15T19:10:52.995Z,100053.88
2022-10-15T19:13:33.316Z,100051.59
2022-10-15T19:16:14.271Z,100063.31
2022-10-15T19:18:57.107Z,100070.16
2022-10-15T19:21:27.201Z,100074.19
2022-10-15T19:24:02.094Z,100080.19
2022-10-15T19:26:36.070Z,100089.28
2022-10-15T19:29:23.121Z,100083.84
2022-10-15T19:32:03.279Z,100090.31
2022-10-15T19:34:40.978Z,100089.50
2022-10-15T19:37:19.771Z,100087.75
2022-10-15T19:40:00.634Z,100093.38
2022-10-15T19:42:31.399Z,100093.16
2022-10-15T19:45:09.872Z,100107.69
2022-10-15T19:47:47.269Z,100106.41
2022-10-15T19:50:19.555Z,100103.34
2022-10-15T19:52:50.954Z,100104.63
2022-10-15T19:55:21.755Z,100113.13
2022-10-15T19:57:54.419Z,100109.38
2022-10-15T20:00:26.544Z,100103.69
2022-10-15T20:03:02.417Z,100105.47
2022-10-15T20:05:34.073Z,100112.66
2022-10-15T20:08:08.285Z,100110.56
2022-10-15T20:10:47.481Z,100109.38
2022-10-15T20:13:22.457Z,100115.63
2022-10-15T20:15:57.918Z,100117.88
2022-10-15T20:18:32.814Z,100116.09
2022-10-15T20:21:16.050Z,100121.16
2022-10-15T20:23:59.640Z,100118.56
2022-10-15T20:26:33.928Z,100120.56
2022-10-15T20:29:09.659Z,100134.13
2022-10-15T20:31:46.091Z,100135.88
2022-10-15T20:34:24.044Z,100143.06
2022-10-15T20:37:01.843Z,100151.44
2022-10-15T20:39:51.336Z,100151.44
2022-10-15T20:42:29.725Z,100154.13
2022-10-15T20:44:59.311Z,100149.16
2022-10-15T20:47:35.414Z,100154.44
2022-10-15T20:50:17.869Z,100162.25
2022-10-15T20:52:53.754Z,100161.88
2022-10-15T20:55:23.992Z,100162.72
2022-10-15T20:58:01.665Z,100164.69
2022-10-15T21:00:37.075Z,100160.47
2022-10-15T21:03:15.236Z,100159.19
2022-10-15T21:05:52.804Z,100155.72
2022-10-15T21:08:30.907Z,100151.81
2022-10-15T21:11:06.093Z,100163.03
2022-10-15T21:13:42.412Z,100175.59
2022-10-15T21:16:23.347Z,100171.59
2022-10-15T21:19:00.992Z,100170.56
2022-10-15T21:21:38.155Z,100166.94
2022-10-15T21:24:15.250Z,100168.31
2022-10-15T21:26:52.581Z,100170.91
2022-10-15T21:29:22.566Z,100169.69
2022-10-15T21:31:54.691Z,100173.53
2022-10-15T21:34:27.920Z,100173.16
2022-10-15T21:37:03.293Z,100176.31
2022-10-15T21:39:35.574Z,100170.28
2022-10-15T21:42:12.691Z,100173.53
2022-10-15T21:44:44.933Z,100167.09
2022-10-15T21:47:15.451Z,100165.91
2022-10-15T21:49:50.639Z,100175.84
2022-10-15T21:52:29.453Z,100168.38
2022-10-15T21:55:08.214Z,100175.50
2022-10-15T21:57:43.050Z,100184.00
2022-10-15T22:00:18.916Z,100180.31
2022-10-15T22:02:51.917Z,100184.44
2022-10-15T22:05:32.577Z,100186.97
2022-10-15T22:08:04.969Z,100196.28
2022-10-15T22:10:37.890Z,100197.72
2022-10-15T22:13:16.262Z,100195.63
2022-10-15T22:15:54.350Z,100195.47
2022-10-15T22:18:28.257Z,100198.78
2022-10-15T22:21:13.765Z,100198.72
2022-10-15T22:23:50.128Z,100205.34
2022-10-15T22:26:30.464Z,100201.59
2022-10-15T22:29:07.895Z,100206.63
2022-10-15T22:31:40.736Z,100207.41
2022-10-15T22:34:18.607Z,100217.81
2022-10-15T22:36:53.656Z,100205.59
2022-10-15T22:39:31.448Z,100210.41
2022-10-15T22:42:12.360Z,100216.28
2022-10-15T22:44:46.274Z,100209.19
2022-10-15T22:47:21.119Z,100213.78
2022-10-15T22:49:57.219Z,100220.88
2022-10-15T22:52:37.655Z,100221.56
2022-10-15T22:55:16.479Z,100220.56
2022-10-15T22:58:02.754Z,100228.94
2022-10-15T23:00:37.129Z,100227.50
2022-10-15T23:03:08.471Z,100237.28
2022-10-15T23:05:43.445Z,100227.34
2022-10-15T23:08:18.725Z,100235.25
2022-10-15T23:10:57.481Z,100227.72
2022-10-15T23:13:33.322Z,100230.88
2022-10-15T23:16:17.934Z,100233.00
2022-10-15T23:18:51.450Z,100235.25
2022-10-15T23:21:35.828Z,100238.06
2022-10-15T23:24:06.382Z,100237.66
2022-10-15T23:26:39.220Z,100238.72
2022-10-15T23:29:15.443Z,100240.81
2022-10-15T23:31:48.345Z,100245.25
2022-10-15T23:34:23.326Z,100242.91
2022-10-15T23:36:58.930Z,100239.91
2022-10-15T23:39:31.024Z,100249.44
2022-10-15T23:42:08.869Z,100251.19
2022-10-15T23:44:40.805Z,100248.09
2022-10-15T23:47:13.414Z,100257.75
2022-10-15T23:49:51.562Z,100263.16
2022-10-15T23:52:26.400Z,100257.03
2022-10-15T23:55:03.724Z,100262.47
2022-10-15T23:57:33.290Z,100257.69
